Dades de l'estació automàtica Muntanyola
Resum diari
16:30 TU| Temperatura mitjana | 12.3 °C | |
|---|---|---|
| Temperatura màxima | 17.4 °C | 12:29 TU |
| Temperatura mínima | 6.9 °C | 3:40 TU |
| Humitat relativa mitjana | 75% | |
| Precipitació acumulada | 0.0 mm | |
| Ratxa màxima del vent (10 m) | 24.5 km/h - 82º | 12:58 TU |
| Pressió atmosfèrica mitjana | 1012.8 hPa | |
| Irradiació solar global | 23.8 MJ/m2 | |
El tram horari està expressat en Temps Universal (TU). Cal sumar una hora en horari d'hivern i dues en horari d'estiu per passar a l'hora oficial.
Muntanyola
| Municipi | Muntanyola |
|---|---|
| Comarca | Osona |
| Altitud | 816 m |
| Data alta | 12.01.1996 |
| Estat actual | Operativa |
| Període TU |
TM °C |
TX °C |
TN °C |
HRM % |
PPT mm |
VVM (10 m) km/h |
DVM (10 m) graus |
VVX (10 m) km/h |
PM hPa |
RS W/m2 |
|---|---|---|---|---|---|---|---|---|---|---|
| 00:00 - 00:30 | 9.1 | 9.3 | 8.9 | 87 | 0.0 | 4.0 | 58 | 7.2 | 1014.8 | 0 |
| 00:30 - 01:00 | 8.5 | 8.9 | 8.1 | 91 | 0.0 | 1.1 | 169 | 4.0 | 1014.8 | 0 |
| 01:00 - 01:30 | 8.1 | 8.3 | 8.0 | 97 | 0.0 | 2.9 | 115 | 5.4 | 1014.6 | 0 |
| 01:30 - 02:00 | 7.8 | 8.2 | 7.4 | 97 | 0.0 | 3.6 | 93 | 6.1 | 1014.6 | 0 |
| 02:00 - 02:30 | 7.3 | 7.4 | 7.2 | 100 | 0.0 | 0.7 | 93 | 4.0 | 1014.7 | 0 |
| 02:30 - 03:00 | 7.1 | 7.3 | 7.0 | 100 | 0.0 | 1.4 | 85 | 3.2 | 1014.8 | 0 |
| 03:00 - 03:30 | 7.2 | 7.4 | 7.1 | 100 | 0.0 | 1.1 | 70 | 3.2 | 1014.6 | 0 |
| 03:30 - 04:00 | 7.1 | 7.2 | 6.9 | 100 | 0.0 | 1.8 | 90 | 3.2 | 1014.6 | 0 |
| 04:00 - 04:30 | 7.1 | 7.2 | 7.0 | 100 | 0.0 | 0.4 | 87 | 1.4 | 1014.6 | 0 |
| 04:30 - 05:00 | 7.2 | 7.4 | 7.1 | 100 | 0.0 | 0.7 | 225 | 2.9 | 1014.6 | 8 |
| 05:00 - 05:30 | 7.6 | 8.0 | 7.4 | 100 | 0.0 | 0.4 | 184 | 2.5 | 1014.6 | 62 |
| 05:30 - 06:00 | 9.3 | 10.5 | 8.1 | 91 | 0.0 | 1.1 | 67 | 4.3 | 1014.1 | 147 |
| 06:00 - 06:30 | 10.5 | 11.2 | 9.8 | 82 | 0.0 | 2.9 | 27 | 5.8 | 1013.8 | 245 |
| 06:30 - 07:00 | 11.3 | 12.6 | 10.4 | 81 | 0.0 | 3.2 | 8 | 5.8 | 1013.6 | 352 |
| 07:00 - 07:30 | 12.8 | 13.8 | 11.4 | 75 | 0.0 | 3.6 | 352 | 6.1 | 1013.4 | 454 |
| 07:30 - 08:00 | 13.3 | 14.4 | 12.5 | 75 | 0.0 | 2.2 | 338 | 6.1 | 1013.3 | 495 |
| 08:00 - 08:30 | 13.3 | 14.5 | 12.4 | 75 | 0.0 | 3.2 | 31 | 9.4 | 1013.2 | 457 |
| 08:30 - 09:00 | 12.9 | 14.4 | 12.0 | 70 | 0.0 | 2.5 | 134 | 8.6 | 1013.3 | 572 |
| 09:00 - 09:30 | 14.5 | 15.3 | 13.8 | 63 | 0.0 | 3.6 | 309 | 12.2 | 1012.8 | 488 |
| 09:30 - 10:00 | 14.6 | 15.4 | 14.0 | 57 | 0.0 | 7.2 | 273 | 16.2 | 1013.0 | 594 |
| 10:00 - 10:30 | 14.8 | 16.2 | 13.9 | 56 | 0.0 | 6.8 | 271 | 16.2 | 1012.7 | 675 |
| 10:30 - 11:00 | 15.6 | 16.3 | 15.2 | 49 | 0.0 | 9.4 | 240 | 19.8 | 1012.3 | 933 |
| 11:00 - 11:30 | 16.0 | 17.0 | 15.2 | 49 | 0.0 | 9.4 | 270 | 23.0 | 1012.0 | 839 |
| 11:30 - 12:00 | 15.4 | 16.3 | 14.9 | 48 | 0.0 | 9.4 | 233 | 16.6 | 1011.9 | 551 |
| 12:00 - 12:30 | 16.2 | 17.4 | 15.5 | 47 | 0.0 | 6.8 | 215 | 18.4 | 1011.5 | 964 |
| 12:30 - 13:00 | 16.3 | 17.4 | 15.8 | 51 | 0.0 | 7.2 | 87 | 24.5 | 1011.2 | 551 |
| 13:00 - 13:30 | 16.3 | 17.2 | 15.4 | 62 | 0.0 | 7.9 | 136 | 20.2 | 1010.9 | 675 |
| 13:30 - 14:00 | 16.1 | 16.6 | 15.4 | 65 | 0.0 | 9.7 | 156 | 23.8 | 1010.5 | 872 |
| 14:00 - 14:30 | 16.2 | 17.3 | 15.3 | 63 | 0.0 | 7.6 | 162 | 21.2 | 1010.2 | 620 |
| 14:30 - 15:00 | 16.2 | 17.2 | 15.8 | 62 | 0.0 | 7.6 | 145 | 20.2 | 1010.1 | 627 |
| 15:00 - 15:30 | 16.0 | 16.4 | 15.4 | 62 | 0.0 | 7.9 | 143 | 23.8 | 1010.0 | 612 |
| 15:30 - 16:00 | 16.3 | 17.0 | 16.0 | 58 | 0.0 | 6.5 | 151 | 19.1 | 1009.7 | 568 |
| 16:00 - 16:30 | 15.7 | 16.3 | 15.2 | 62 | 0.0 | 7.2 | 148 | 18.0 | 1010.0 | 457 |
| 16:30 - 17:00 | 15.1 | 15.6 | 14.8 | 65 | 0.0 | 6.5 | 161 | 19.8 | 1010.4 | 419 |
| 17:00 - 17:30 | (s/d) | (s/d) | (s/d) | (s/d) | (s/d) | (s/d) | (s/d) | (s/d) | (s/d) | (s/d) |
Les dades en taronja només han passat un control de qualitat automàtic. Resta pendent la seva validació definitiva.